createdAt,value
2023-09-27T00:01:23.258Z,99.90
2023-09-27T00:03:59.666Z,99.90
2023-09-27T00:06:35.556Z,99.90
2023-09-27T00:09:10.826Z,99.90
2023-09-27T00:11:47.640Z,99.90
2023-09-27T00:14:27.191Z,99.90
2023-09-27T00:17:05.156Z,99.90
2023-09-27T00:19:46.729Z,99.90
2023-09-27T00:22:25.967Z,99.90
2023-09-27T00:25:00.953Z,99.90
2023-09-27T00:27:38.299Z,99.90
2023-09-27T00:30:20.483Z,99.90
2023-09-27T00:32:58.457Z,99.90
2023-09-27T00:35:38.272Z,99.90
2023-09-27T00:38:13.580Z,99.90
2023-09-27T00:40:50.814Z,99.90
2023-09-27T00:43:40.240Z,99.90
2023-09-27T00:46:20.567Z,99.90
2023-09-27T00:48:58.377Z,99.90
2023-09-27T00:51:39.479Z,99.90
2023-09-27T00:54:19.568Z,99.90
2023-09-27T00:56:59.059Z,99.90
2023-09-27T00:59:35.799Z,99.90
2023-09-27T01:02:16.703Z,99.90
2023-09-27T01:04:52.497Z,99.90
2023-09-27T01:07:29.188Z,99.90
2023-09-27T01:10:05.439Z,99.90
2023-09-27T01:12:40.871Z,99.90
2023-09-27T01:15:20.645Z,99.90
2023-09-27T01:18:02.534Z,99.90
2023-09-27T01:20:37.821Z,99.90
2023-09-27T01:23:17.617Z,99.90
2023-09-27T01:25:56.400Z,99.90
2023-09-27T01:28:32.513Z,99.90
2023-09-27T01:31:09.611Z,99.90
2023-09-27T01:33:45.200Z,99.90
2023-09-27T01:36:23.738Z,99.90
2023-09-27T01:39:04.374Z,99.90
2023-09-27T01:41:41.987Z,99.90
2023-09-27T01:44:20.919Z,99.90
2023-09-27T01:46:57.492Z,99.90
2023-09-27T01:49:35.122Z,99.90
2023-09-27T01:52:12.971Z,99.90
2023-09-27T01:54:51.277Z,99.90
2023-09-27T01:57:32.924Z,99.90
2023-09-27T02:00:10.571Z,99.90
2023-09-27T02:02:48.078Z,99.90
2023-09-27T02:05:25.026Z,99.90
2023-09-27T02:08:00.966Z,99.90
2023-09-27T02:10:40.151Z,99.90
2023-09-27T02:13:17.549Z,99.90
2023-09-27T02:15:55.954Z,99.90
2023-09-27T02:18:31.427Z,99.90
2023-09-27T02:21:10.533Z,99.90
2023-09-27T02:23:44.121Z,99.90
2023-09-27T02:26:22.939Z,99.90
2023-09-27T02:28:57.561Z,99.90
2023-09-27T02:31:33.169Z,99.90
2023-09-27T02:34:11.415Z,99.90
2023-09-27T02:36:48.093Z,99.90
2023-09-27T02:39:27.481Z,99.90
2023-09-27T02:42:06.970Z,99.90
2023-09-27T02:44:45.186Z,99.90
2023-09-27T02:47:20.422Z,99.90
2023-09-27T02:49:56.235Z,99.90
2023-09-27T02:52:41.798Z,99.90
2023-09-27T02:55:16.767Z,99.90
2023-09-27T02:57:56.559Z,99.90
2023-09-27T03:00:34.635Z,99.90
2023-09-27T03:03:15.245Z,99.90
2023-09-27T03:05:51.600Z,99.90
2023-09-27T03:08:30.377Z,99.90
2023-09-27T03:11:10.903Z,99.90
2023-09-27T03:13:49.265Z,99.90
2023-09-27T03:16:25.148Z,99.90
2023-09-27T03:19:00.491Z,99.90
2023-09-27T03:21:41.496Z,99.90
2023-09-27T03:24:18.973Z,99.90
2023-09-27T03:26:58.290Z,99.90
2023-09-27T03:29:41.170Z,99.90
2023-09-27T03:32:15.306Z,99.90
2023-09-27T03:34:51.314Z,99.90
2023-09-27T03:37:30.322Z,99.90
2023-09-27T03:40:15.782Z,99.90
2023-09-27T03:42:51.851Z,99.90
2023-09-27T03:45:32.155Z,99.90
2023-09-27T03:48:11.089Z,99.90
2023-09-27T03:50:47.256Z,99.90
2023-09-27T03:53:27.337Z,99.90
2023-09-27T03:56:01.359Z,99.90
2023-09-27T03:58:39.182Z,99.90
2023-09-27T04:01:28.434Z,99.90
2023-09-27T04:04:05.997Z,99.90
2023-09-27T04:06:47.638Z,99.90
2023-09-27T04:09:25.213Z,99.90
2023-09-27T04:12:03.568Z,99.90
2023-09-27T04:14:42.851Z,99.90
2023-09-27T04:17:23.983Z,99.90
2023-09-27T04:19:58.344Z,99.90
2023-09-27T04:22:33.792Z,99.90
2023-09-27T04:25:12.902Z,99.90
2023-09-27T04:27:51.954Z,99.90
2023-09-27T04:30:29.877Z,99.90
2023-09-27T04:33:16.765Z,99.90
2023-09-27T04:35:53.859Z,99.90
2023-09-27T04:38:28.919Z,99.90
2023-09-27T04:41:04.782Z,99.90
2023-09-27T04:43:42.244Z,99.90
2023-09-27T04:46:18.232Z,99.90
2023-09-27T04:49:02.820Z,99.90
2023-09-27T04:51:38.582Z,99.90
2023-09-27T04:54:18.862Z,99.90
2023-09-27T04:56:54.291Z,99.90
2023-09-27T04:59:38.857Z,99.90
2023-09-27T05:02:16.820Z,99.90
2023-09-27T05:04:57.364Z,99.90
2023-09-27T05:07:35.314Z,99.90
2023-09-27T05:10:19.714Z,99.90
2023-09-27T05:12:56.204Z,99.90
2023-09-27T05:15:32.322Z,99.90
2023-09-27T05:18:09.781Z,99.90
2023-09-27T05:20:50.324Z,99.90
2023-09-27T05:23:25.863Z,99.90
2023-09-27T05:26:04.903Z,99.90
2023-09-27T05:28:46.620Z,99.90
2023-09-27T05:31:21.639Z,99.90
2023-09-27T05:34:00.975Z,99.90
2023-09-27T05:36:42.217Z,99.90
2023-09-27T05:39:18.453Z,99.90
2023-09-27T05:41:56.890Z,99.90
2023-09-27T05:44:37.968Z,99.90
2023-09-27T05:47:13.800Z,99.90
2023-09-27T05:49:48.969Z,99.90
2023-09-27T05:52:30.186Z,99.90
2023-09-27T05:55:07.572Z,99.90
2023-09-27T05:57:45.869Z,99.90
2023-09-27T06:00:29.339Z,99.90
2023-09-27T06:03:11.079Z,99.90
2023-09-27T06:05:48.193Z,99.90
2023-09-27T06:08:30.504Z,99.90
2023-09-27T06:11:12.393Z,99.90
2023-09-27T06:13:49.761Z,99.90
2023-09-27T06:16:25.836Z,99.90
2023-09-27T06:19:03.272Z,99.90
2023-09-27T06:21:44.700Z,99.90
2023-09-27T06:24:25.993Z,99.90
2023-09-27T06:27:04.490Z,99.90
2023-09-27T06:29:40.867Z,99.90
2023-09-27T06:32:16.822Z,99.90
2023-09-27T06:34:54.956Z,99.90
2023-09-27T06:37:27.357Z,99.90
2023-09-27T06:40:09.587Z,99.90
2023-09-27T06:42:47.239Z,99.90
2023-09-27T06:45:24.540Z,99.90
2023-09-27T06:48:05.591Z,99.90
2023-09-27T06:50:45.428Z,99.90
2023-09-27T06:53:24.986Z,99.90
2023-09-27T06:56:07.345Z,99.90
2023-09-27T06:58:46.818Z,99.90
2023-09-27T07:01:26.427Z,99.90
2023-09-27T07:04:05.049Z,99.90
2023-09-27T07:06:45.681Z,99.90
2023-09-27T07:09:24.134Z,99.90
2023-09-27T07:12:04.943Z,99.90
2023-09-27T07:14:43.252Z,99.90
2023-09-27T07:17:20.638Z,99.90
2023-09-27T07:19:58.132Z,99.90
2023-09-27T07:22:35.068Z,99.90
2023-09-27T07:25:17.937Z,99.90
2023-09-27T07:27:57.435Z,99.90
2023-09-27T07:30:33.855Z,99.90
2023-09-27T07:33:12.865Z,99.90
2023-09-27T07:35:53.554Z,99.90
2023-09-27T07:38:28.717Z,99.90
2023-09-27T07:41:04.868Z,99.90
2023-09-27T07:43:45.998Z,99.90
2023-09-27T07:46:21.232Z,99.90
2023-09-27T07:48:59.993Z,99.90
2023-09-27T07:51:37.460Z,99.90
2023-09-27T07:54:13.875Z,99.90
2023-09-27T07:56:52.988Z,99.90
2023-09-27T07:59:35.235Z,99.90
2023-09-27T08:02:12.936Z,99.90
2023-09-27T08:04:52.088Z,99.90
2023-09-27T08:07:28.647Z,99.90
2023-09-27T08:10:19.137Z,99.90
2023-09-27T08:12:58.020Z,99.90
2023-09-27T08:15:41.466Z,99.90
2023-09-27T08:18:17.457Z,99.90
2023-09-27T08:20:58.500Z,99.90
2023-09-27T08:23:33.955Z,99.90
2023-09-27T08:26:14.322Z,99.90
2023-09-27T08:28:52.430Z,99.90
2023-09-27T08:31:38.524Z,99.90
2023-09-27T08:34:12.640Z,99.90
2023-09-27T08:36:50.804Z,99.90
2023-09-27T08:39:41.427Z,99.90
2023-09-27T08:42:20.839Z,99.90
2023-09-27T08:44:54.917Z,99.90
2023-09-27T08:47:35.627Z,99.90
2023-09-27T08:50:14.046Z,99.90
2023-09-27T08:52:52.524Z,99.90
2023-09-27T08:55:31.411Z,99.90
2023-09-27T08:58:12.050Z,99.90
2023-09-27T09:00:49.460Z,99.90
2023-09-27T09:03:28.101Z,99.90
2023-09-27T09:06:06.825Z,99.90
2023-09-27T09:08:52.701Z,99.90
2023-09-27T09:11:28.170Z,99.90
2023-09-27T09:14:06.325Z,99.90
2023-09-27T09:16:49.147Z,99.90
2023-09-27T09:19:43.302Z,99.90
2023-09-27T09:22:22.435Z,99.90
2023-09-27T09:25:01.443Z,99.90
2023-09-27T09:27:45.771Z,99.90
2023-09-27T09:30:26.635Z,99.90
2023-09-27T09:33:02.454Z,99.90
2023-09-27T09:35:44.865Z,99.90
2023-09-27T09:38:31.096Z,99.90
2023-09-27T09:41:06.338Z,99.90
2023-09-27T09:43:41.023Z,99.90
2023-09-27T09:46:22.381Z,99.90
2023-09-27T09:48:59.546Z,99.90
2023-09-27T09:51:39.027Z,99.90
2023-09-27T09:54:18.080Z,99.90
2023-09-27T09:57:01.390Z,99.90
2023-09-27T09:59:49.878Z,99.90
2023-09-27T10:02:29.117Z,99.90
2023-09-27T10:05:10.116Z,99.90
2023-09-27T10:07:47.162Z,99.90
2023-09-27T10:10:42.155Z,99.90
2023-09-27T10:13:20.582Z,99.90
2023-09-27T10:15:57.309Z,99.90
2023-09-27T10:18:38.092Z,99.90
2023-09-27T10:21:14.697Z,99.90
2023-09-27T10:24:02.904Z,99.90
2023-09-27T10:26:47.316Z,99.90
2023-09-27T10:29:24.161Z,99.90
2023-09-27T10:31:57.252Z,99.90
2023-09-27T10:34:46.227Z,99.90
2023-09-27T10:37:53.113Z,99.90
2023-09-27T10:40:31.461Z,99.90
2023-09-27T10:43:16.327Z,99.90
2023-09-27T10:46:01.141Z,99.90
2023-09-27T10:48:43.881Z,99.90
2023-09-27T10:51:19.030Z,99.90
2023-09-27T10:53:55.698Z,99.90
2023-09-27T10:56:34.627Z,99.90
2023-09-27T10:59:15.087Z,99.70
2023-09-27T11:01:51.392Z,99.90
2023-09-27T11:04:27.223Z,99.90
2023-09-27T11:07:06.212Z,99.40
2023-09-27T11:09:48.961Z,99.60
2023-09-27T11:12:26.756Z,99.70
2023-09-27T11:15:07.224Z,99.90
2023-09-27T11:17:43.831Z,99.90
2023-09-27T11:20:23.268Z,99.30
2023-09-27T11:22:59.198Z,99.70
2023-09-27T11:25:36.586Z,98.50
2023-09-27T11:28:19.605Z,98.50
2023-09-27T11:31:07.510Z,98.40
2023-09-27T11:33:44.358Z,98.50
2023-09-27T11:36:20.769Z,98.40
2023-09-27T11:38:58.769Z,97.40
2023-09-27T11:41:42.212Z,96.90
2023-09-27T11:44:25.371Z,96.30
2023-09-27T11:47:13.749Z,97.20
2023-09-27T11:49:52.618Z,96.70
2023-09-27T11:52:30.303Z,96.40
2023-09-27T11:55:07.596Z,96.40
2023-09-27T11:57:42.898Z,96.90
2023-09-27T12:00:20.840Z,96.40
2023-09-27T12:03:03.361Z,97.50
2023-09-27T12:05:40.765Z,96.80
2023-09-27T12:08:18.223Z,96.70
2023-09-27T12:10:55.690Z,96.20
2023-09-27T12:13:33.491Z,96.10
2023-09-27T12:16:12.463Z,96.90
2023-09-27T12:18:50.364Z,96.10
2023-09-27T12:21:25.742Z,95.40
2023-09-27T12:24:02.634Z,96.40
2023-09-27T12:26:39.573Z,95.70
2023-09-27T12:29:14.357Z,95.50
2023-09-27T12:31:52.193Z,95.60
2023-09-27T12:34:33.302Z,95.40
2023-09-27T12:37:09.102Z,96.10
2023-09-27T12:39:44.630Z,95.70
2023-09-27T12:42:24.728Z,95.60
2023-09-27T12:45:11.465Z,94.90
2023-09-27T12:47:48.516Z,95.60
2023-09-27T12:50:28.431Z,95.60
2023-09-27T12:53:05.827Z,95.00
2023-09-27T12:55:49.678Z,94.80
2023-09-27T12:58:29.093Z,95.40
2023-09-27T13:01:06.366Z,95.40
2023-09-27T13:03:42.961Z,95.50
2023-09-27T13:06:23.209Z,94.70
2023-09-27T13:08:59.528Z,94.30
2023-09-27T13:11:38.976Z,94.60
2023-09-27T13:14:19.228Z,94.50
2023-09-27T13:16:54.718Z,94.00
2023-09-27T13:19:33.249Z,94.30
2023-09-27T13:22:15.445Z,93.80
2023-09-27T13:24:53.739Z,93.70
2023-09-27T13:27:31.393Z,93.90
2023-09-27T13:30:21.961Z,94.20
2023-09-27T13:33:07.836Z,94.30
2023-09-27T13:35:46.040Z,94.70
2023-09-27T13:38:29.166Z,95.10
2023-09-27T13:41:04.017Z,94.30
2023-09-27T13:43:45.925Z,94.60
2023-09-27T13:46:23.927Z,94.40
2023-09-27T13:49:00.632Z,94.70
2023-09-27T13:51:40.221Z,94.20
2023-09-27T13:54:24.544Z,94.30
2023-09-27T13:57:04.358Z,94.10
2023-09-27T13:59:42.923Z,94.00
2023-09-27T14:02:25.264Z,94.00
2023-09-27T14:05:00.411Z,93.60
2023-09-27T14:07:36.912Z,94.30
2023-09-27T14:10:17.995Z,94.40
2023-09-27T14:12:53.596Z,94.30
2023-09-27T14:15:31.033Z,94.80
2023-09-27T14:18:07.585Z,94.30
2023-09-27T14:20:46.669Z,94.30
2023-09-27T14:23:27.277Z,94.70
2023-09-27T14:26:07.592Z,94.70
2023-09-27T14:28:44.023Z,94.50
2023-09-27T14:31:29.640Z,94.70
2023-09-27T14:34:05.886Z,95.10
2023-09-27T14:36:44.653Z,94.00
2023-09-27T14:39:18.789Z,94.90
2023-09-27T14:42:06.850Z,95.50
2023-09-27T14:44:43.009Z,95.40
2023-09-27T14:47:21.842Z,94.70
2023-09-27T14:49:58.897Z,94.60
2023-09-27T14:52:37.095Z,95.40
2023-09-27T14:55:16.721Z,95.10
2023-09-27T14:57:57.131Z,95.40
2023-09-27T15:00:39.636Z,95.50
2023-09-27T15:03:16.128Z,95.20
2023-09-27T15:05:56.279Z,95.80
2023-09-27T15:08:34.345Z,96.40
2023-09-27T15:11:13.283Z,96.70
2023-09-27T15:13:53.919Z,96.40
2023-09-27T15:16:31.832Z,96.90
2023-09-27T15:19:07.564Z,96.90
2023-09-27T15:21:48.964Z,97.00
2023-09-27T15:24:29.841Z,96.70
2023-09-27T15:27:08.077Z,97.10
2023-09-27T15:29:49.896Z,97.30
2023-09-27T15:32:30.647Z,97.00
2023-09-27T15:35:07.157Z,97.50
2023-09-27T15:37:50.023Z,97.60
2023-09-27T15:45:40.880Z,97.90
2023-09-27T15:48:17.477Z,98.20
2023-09-27T15:50:53.819Z,98.30
2023-09-27T15:53:35.114Z,98.40
2023-09-27T15:56:07.950Z,98.70
2023-09-27T15:58:45.960Z,99.00
2023-09-27T16:01:25.261Z,99.30
2023-09-27T16:04:05.838Z,99.50
2023-09-27T16:06:43.322Z,99.90
2023-09-27T16:09:19.697Z,99.90
2023-09-27T16:12:01.428Z,99.90
2023-09-27T16:14:38.809Z,99.90
2023-09-27T16:17:19.653Z,99.90
2023-09-27T16:20:00.696Z,99.90
2023-09-27T16:22:40.249Z,99.90
2023-09-27T16:25:16.670Z,99.90
2023-09-27T16:27:52.562Z,99.90
2023-09-27T16:30:33.272Z,99.90
2023-09-27T16:33:14.263Z,99.90
2023-09-27T16:35:56.493Z,99.90
2023-09-27T16:38:33.649Z,99.90
2023-09-27T16:41:11.467Z,99.90
2023-09-27T16:43:46.523Z,99.90
2023-09-27T16:46:23.988Z,99.90
2023-09-27T16:49:02.710Z,99.90
2023-09-27T16:51:37.619Z,99.90
2023-09-27T16:54:12.832Z,99.90
2023-09-27T16:56:48.088Z,99.90
2023-09-27T16:59:23.489Z,99.90
2023-09-27T17:01:58.999Z,99.90
2023-09-27T17:04:37.009Z,99.90
2023-09-27T17:07:13.374Z,99.90
2023-09-27T17:09:56.129Z,99.90
2023-09-27T17:12:31.043Z,99.90
2023-09-27T17:15:05.715Z,99.90
2023-09-27T17:17:41.146Z,99.90
2023-09-27T17:20:18.431Z,99.90
2023-09-27T17:22:56.058Z,99.90
2023-09-27T17:25:30.969Z,99.90
2023-09-27T17:28:08.863Z,99.90
2023-09-27T17:30:44.284Z,99.90
2023-09-27T17:33:18.636Z,99.90
2023-09-27T17:36:02.529Z,99.90
2023-09-27T17:38:39.389Z,99.90
2023-09-27T17:41:16.166Z,99.90
2023-09-27T17:43:52.412Z,99.90
2023-09-27T17:46:32.780Z,99.90
2023-09-27T17:49:10.253Z,99.90
2023-09-27T17:51:52.185Z,99.90
2023-09-27T17:54:27.506Z,99.90
2023-09-27T17:57:05.460Z,99.90
2023-09-27T17:59:44.601Z,99.90
2023-09-27T18:02:25.350Z,99.90
2023-09-27T18:05:03.536Z,99.90
2023-09-27T18:07:51.385Z,99.90
2023-09-27T18:10:31.609Z,99.90
2023-09-27T18:13:08.481Z,99.90
2023-09-27T18:15:45.911Z,99.90
2023-09-27T18:18:22.288Z,99.90
2023-09-27T18:20:58.124Z,99.90
2023-09-27T18:23:39.266Z,99.90
2023-09-27T18:26:24.605Z,99.90
2023-09-27T18:29:03.479Z,99.90
2023-09-27T18:31:43.935Z,99.90
2023-09-27T18:34:28.198Z,99.90
2023-09-27T18:37:05.503Z,99.90
2023-09-27T18:39:45.807Z,99.90
2023-09-27T18:42:23.186Z,99.90
2023-09-27T18:44:59.273Z,99.90
2023-09-27T18:47:36.191Z,99.90
2023-09-27T18:50:15.079Z,99.90
2023-09-27T18:52:55.770Z,99.90
2023-09-27T18:55:38.085Z,99.90
2023-09-27T18:58:15.656Z,99.90
2023-09-27T19:00:54.730Z,99.90
2023-09-27T19:03:32.747Z,99.90
2023-09-27T19:06:13.207Z,99.90
2023-09-27T19:08:49.884Z,99.90
2023-09-27T19:11:31.524Z,99.90
2023-09-27T19:14:07.588Z,99.90
2023-09-27T19:16:45.976Z,99.90
2023-09-27T19:19:21.884Z,99.90
2023-09-27T19:21:59.921Z,99.90
2023-09-27T19:24:36.387Z,99.90
2023-09-27T19:27:18.727Z,99.90
2023-09-27T19:29:57.565Z,99.90
2023-09-27T19:32:35.572Z,99.90
2023-09-27T19:35:16.860Z,99.90
2023-09-27T19:37:53.374Z,99.90
2023-09-27T19:40:28.954Z,99.90
2023-09-27T19:43:09.762Z,99.90
2023-09-27T19:45:46.034Z,99.90
2023-09-27T19:48:21.939Z,99.90
2023-09-27T19:50:59.971Z,99.90
2023-09-27T19:53:33.528Z,99.90
2023-09-27T19:56:13.108Z,99.90
2023-09-27T19:58:52.778Z,99.90
2023-09-27T20:01:33.737Z,99.90
2023-09-27T20:04:16.910Z,99.90
2023-09-27T20:06:56.274Z,99.90
2023-09-27T20:09:33.123Z,99.90
2023-09-27T20:12:09.475Z,99.90
2023-09-27T20:14:50.358Z,99.90
2023-09-27T20:17:27.242Z,99.90
2023-09-27T20:20:06.586Z,99.90
2023-09-27T20:22:45.001Z,99.90
2023-09-27T20:25:21.180Z,99.90
2023-09-27T20:28:02.090Z,99.90
2023-09-27T20:30:40.656Z,99.90
2023-09-27T20:33:19.715Z,99.90
2023-09-27T20:35:57.826Z,99.90
2023-09-27T20:38:36.204Z,99.90
2023-09-27T20:41:11.131Z,99.90
2023-09-27T20:43:46.873Z,99.90
2023-09-27T20:46:27.066Z,99.90
2023-09-27T20:49:06.172Z,99.90
2023-09-27T20:51:41.990Z,99.90
2023-09-27T20:54:18.804Z,99.90
2023-09-27T20:56:56.728Z,99.90
2023-09-27T20:59:30.909Z,99.90
2023-09-27T21:02:22.788Z,99.90
2023-09-27T21:05:00.936Z,99.90
2023-09-27T21:07:34.559Z,99.90
2023-09-27T21:10:12.260Z,99.90
2023-09-27T21:12:50.365Z,99.90
2023-09-27T21:15:28.909Z,99.90
2023-09-27T21:18:10.580Z,99.90
2023-09-27T21:20:50.001Z,99.90
2023-09-27T21:23:27.429Z,99.90
2023-09-27T21:26:02.807Z,99.90
2023-09-27T21:28:40.980Z,99.90
2023-09-27T21:31:18.671Z,99.90
2023-09-27T21:33:59.434Z,99.90
2023-09-27T21:36:35.595Z,99.90
2023-09-27T21:39:15.499Z,99.90
2023-09-27T21:41:51.786Z,99.90
2023-09-27T21:44:31.593Z,99.90
2023-09-27T21:47:07.054Z,99.90
2023-09-27T21:49:50.352Z,99.90
2023-09-27T21:52:37.274Z,99.90
2023-09-27T21:55:18.744Z,99.90
2023-09-27T21:58:04.156Z,99.90
2023-09-27T22:00:39.640Z,99.90
2023-09-27T22:03:20.535Z,99.90
2023-09-27T22:06:03.802Z,99.90
2023-09-27T22:08:49.982Z,99.90
2023-09-27T22:11:26.248Z,99.90
2023-09-27T22:14:07.067Z,99.90
2023-09-27T22:16:45.850Z,99.90
2023-09-27T22:19:27.672Z,99.90
2023-09-27T22:22:04.793Z,99.90
2023-09-27T22:24:44.826Z,99.90
2023-09-27T22:27:28.026Z,99.90
2023-09-27T22:30:11.638Z,99.90
2023-09-27T22:32:47.914Z,99.90
2023-09-27T22:35:27.933Z,99.90
2023-09-27T22:38:09.753Z,99.90
2023-09-27T22:40:48.667Z,99.90
2023-09-27T22:43:27.747Z,99.90
2023-09-27T22:46:07.454Z,99.90
2023-09-27T22:48:48.593Z,99.90
2023-09-27T22:51:24.616Z,99.90
2023-09-27T22:54:02.000Z,99.90
2023-09-27T22:56:43.035Z,99.90
2023-09-27T22:59:16.836Z,99.90
2023-09-27T23:01:56.903Z,99.90
2023-09-27T23:04:35.859Z,99.90
2023-09-27T23:07:18.484Z,99.90
2023-09-27T23:10:04.961Z,99.90
2023-09-27T23:12:44.528Z,99.90
2023-09-27T23:15:40.689Z,99.90
2023-09-27T23:18:17.446Z,99.90
2023-09-27T23:20:54.328Z,99.90
2023-09-27T23:23:38.217Z,99.90
2023-09-27T23:26:11.596Z,99.90
2023-09-27T23:29:18.918Z,99.90
2023-09-27T23:31:51.950Z,99.90
2023-09-27T23:34:27.058Z,99.90
2023-09-27T23:37:11.019Z,99.90
2023-09-27T23:39:48.688Z,99.90
2023-09-27T23:42:24.059Z,99.90
2023-09-27T23:45:10.692Z,99.90
2023-09-27T23:47:51.551Z,99.90
2023-09-27T23:50:31.750Z,99.90
2023-09-27T23:53:10.732Z,99.90
2023-09-27T23:55:49.437Z,99.90
2023-09-27T23:58:25.958Z,99.90
